createdAt,value
2023-05-05T00:00:12.214Z,5.15
2023-05-05T00:02:39.232Z,5.03
2023-05-05T00:05:06.440Z,4.97
2023-05-05T00:07:32.952Z,5.78
2023-05-05T00:09:59.583Z,4.80
2023-05-05T00:12:25.889Z,5.40
2023-05-05T00:14:52.533Z,5.50
2023-05-05T00:17:19.187Z,5.88
2023-05-05T00:19:45.521Z,6.25
2023-05-05T00:22:11.903Z,6.07
2023-05-05T00:24:38.451Z,5.85
2023-05-05T00:27:04.806Z,5.93
2023-05-05T00:29:31.348Z,6.22
2023-05-05T00:31:58.017Z,6.47
2023-05-05T00:34:24.493Z,6.75
2023-05-05T00:36:50.869Z,6.63
2023-05-05T00:39:17.513Z,6.28
2023-05-05T00:41:43.909Z,6.63
2023-05-05T00:44:10.491Z,5.95
2023-05-05T00:46:37.038Z,7.25
2023-05-05T00:49:03.582Z,6.55
2023-05-05T00:51:30.002Z,6.75
2023-05-05T00:53:57.010Z,6.40
2023-05-05T00:56:27.501Z,6.50
2023-05-05T00:58:54.126Z,7.10
2023-05-05T01:01:20.798Z,6.50
2023-05-05T01:03:47.493Z,6.07
2023-05-05T01:06:29.558Z,6.60
2023-05-05T01:09:27.394Z,6.28
2023-05-05T01:12:14.565Z,5.68
2023-05-05T01:14:46.459Z,6.60
2023-05-05T01:17:25.599Z,5.43
2023-05-05T01:20:10.871Z,6.22
2023-05-05T01:22:48.833Z,5.80
2023-05-05T01:25:40.825Z,6.03
2023-05-05T01:28:30.375Z,5.88
2023-05-05T01:31:04.018Z,5.75
2023-05-05T01:33:36.833Z,6.18
2023-05-05T01:36:10.397Z,5.82
2023-05-05T01:38:41.250Z,5.53
2023-05-05T01:41:15.214Z,6.35
2023-05-05T01:43:45.725Z,5.97
2023-05-05T01:46:14.147Z,5.70
2023-05-05T01:51:10.356Z,6.35
2023-05-05T01:53:38.574Z,5.55
2023-05-05T01:56:06.293Z,6.53
2023-05-05T01:58:33.866Z,6.20
2023-05-05T02:01:01.293Z,6.27
2023-05-05T02:03:29.856Z,5.90
2023-05-05T02:08:25.927Z,5.80
2023-05-05T02:10:54.138Z,6.07
2023-05-05T02:13:22.820Z,6.20
2023-05-05T02:15:50.393Z,5.75
2023-05-05T02:18:18.510Z,5.95
2023-05-05T02:20:46.941Z,6.05
2023-05-05T02:23:13.371Z,6.25
2023-05-05T02:25:48.974Z,6.10
2023-05-05T02:28:20.454Z,6.60
2023-05-05T02:31:00.416Z,6.88
2023-05-05T02:33:29.240Z,6.43
2023-05-05T02:35:57.378Z,6.05
2023-05-05T02:38:28.111Z,6.95
2023-05-05T02:40:56.590Z,6.47
2023-05-05T02:45:50.956Z,6.30
2023-05-05T02:48:17.409Z,6.07
2023-05-05T02:50:43.720Z,6.63
2023-05-05T02:53:10.142Z,6.75
2023-05-05T02:55:50.213Z,6.90
2023-05-05T02:58:24.756Z,6.25
2023-05-05T03:01:01.514Z,6.40
2023-05-05T03:03:35.273Z,6.72
2023-05-05T03:06:22.642Z,6.35
2023-05-05T03:08:56.340Z,6.47
2023-05-05T03:11:29.688Z,8.18
2023-05-05T03:14:05.305Z,7.10
2023-05-05T03:16:32.664Z,6.38
2023-05-05T03:19:00.501Z,6.07
2023-05-05T03:21:27.874Z,6.70
2023-05-05T03:23:54.535Z,6.03
2023-05-05T03:26:21.084Z,6.20
2023-05-05T03:28:47.534Z,6.80
2023-05-05T03:31:14.506Z,8.32
2023-05-05T03:33:40.915Z,8.70
2023-05-05T03:36:07.888Z,9.65
2023-05-05T03:38:34.666Z,9.55
2023-05-05T03:41:03.201Z,8.23
2023-05-05T03:45:55.974Z,6.82
2023-05-05T03:48:22.429Z,6.97
2023-05-05T03:50:50.092Z,6.53
2023-05-05T03:53:16.692Z,5.77
2023-05-05T03:55:42.992Z,6.43
2023-05-05T03:58:09.425Z,5.82
2023-05-05T04:00:35.785Z,6.38
2023-05-05T04:03:02.421Z,6.57
2023-05-05T04:05:28.820Z,7.18
2023-05-05T04:07:55.745Z,6.97
2023-05-05T04:10:22.141Z,7.80
2023-05-05T04:12:48.774Z,8.07
2023-05-05T04:15:15.391Z,7.88
2023-05-05T04:17:41.838Z,7.88
2023-05-05T04:20:09.562Z,8.75
2023-05-05T04:22:36.039Z,9.57
2023-05-05T04:25:02.696Z,9.07
2023-05-05T04:27:30.272Z,9.48
2023-05-05T04:29:59.178Z,9.70
2023-05-05T04:32:25.595Z,9.80
2023-05-05T04:34:51.936Z,10.10
2023-05-05T04:37:18.574Z,9.88
2023-05-05T04:39:45.482Z,10.90
2023-05-05T04:42:12.389Z,10.75
2023-05-05T04:44:39.278Z,11.10
2023-05-05T04:47:05.811Z,11.18
2023-05-05T04:49:32.390Z,10.70
2023-05-05T04:51:59.040Z,10.88
2023-05-05T04:54:25.817Z,11.05
2023-05-05T04:56:52.489Z,10.85
2023-05-05T04:59:18.856Z,11.18
2023-05-05T05:01:45.612Z,10.70
2023-05-05T05:04:13.245Z,10.60
2023-05-05T05:06:39.567Z,11.33
2023-05-05T05:09:05.942Z,11.65
2023-05-05T05:11:33.824Z,12.25
2023-05-05T05:14:00.180Z,11.10
2023-05-05T05:16:26.999Z,11.35
2023-05-05T05:18:53.647Z,12.50
2023-05-05T05:21:20.213Z,11.23
2023-05-05T05:23:47.293Z,12.57
2023-05-05T05:26:13.776Z,13.30
2023-05-05T05:28:41.900Z,12.00
2023-05-05T05:31:08.490Z,12.63
2023-05-05T05:33:34.875Z,13.75
2023-05-05T05:36:01.559Z,13.10
2023-05-05T05:38:27.905Z,13.15
2023-05-05T05:40:54.429Z,12.57
2023-05-05T05:43:21.431Z,13.85
2023-05-05T05:45:48.127Z,13.25
2023-05-05T05:48:14.523Z,13.00
2023-05-05T05:50:40.902Z,13.57
2023-05-05T05:53:07.267Z,14.23
2023-05-05T05:55:33.885Z,13.88
2023-05-05T05:58:00.322Z,15.88
2023-05-05T06:00:27.008Z,15.20
2023-05-05T06:02:53.468Z,15.27
2023-05-05T06:05:22.367Z,15.40
2023-05-05T06:07:48.699Z,15.23
2023-05-05T06:10:26.807Z,15.85
2023-05-05T06:12:54.790Z,15.88
2023-05-05T06:15:21.805Z,15.45
2023-05-05T06:17:49.319Z,15.05
2023-05-05T06:20:17.401Z,16.70
2023-05-05T06:22:43.809Z,16.20
2023-05-05T06:25:10.920Z,15.88
2023-05-05T06:27:37.562Z,16.25
2023-05-05T06:30:05.260Z,15.50
2023-05-05T06:32:31.990Z,15.97
2023-05-05T06:34:59.040Z,16.85
2023-05-05T06:37:25.597Z,16.77
2023-05-05T06:39:52.157Z,15.38
2023-05-05T06:42:19.671Z,15.65
2023-05-05T06:44:46.999Z,14.85
2023-05-05T06:47:13.311Z,15.30
2023-05-05T06:49:39.638Z,14.90
2023-05-05T06:52:08.137Z,15.48
2023-05-05T06:57:01.269Z,13.32
2023-05-05T06:59:27.585Z,12.52
2023-05-05T07:01:53.905Z,12.93
2023-05-05T07:04:21.375Z,12.85
2023-05-05T07:06:48.061Z,12.23
2023-05-05T07:09:15.740Z,12.43
2023-05-05T07:11:43.855Z,11.10
2023-05-05T07:14:10.298Z,11.80
2023-05-05T07:16:37.224Z,11.20
2023-05-05T07:19:08.121Z,11.60
2023-05-05T07:21:34.969Z,10.15
2023-05-05T07:24:03.003Z,10.45
2023-05-05T07:26:29.577Z,10.15
2023-05-05T07:28:57.440Z,10.32
2023-05-05T07:31:23.993Z,10.15
2023-05-05T07:33:50.741Z,9.70
2023-05-05T07:36:20.363Z,9.77
2023-05-05T07:38:46.709Z,9.68
2023-05-05T07:41:13.374Z,9.55
2023-05-05T07:43:44.180Z,8.35
2023-05-05T07:46:11.265Z,9.52
2023-05-05T07:48:39.018Z,9.02
2023-05-05T07:51:05.434Z,9.30
2023-05-05T07:53:31.954Z,9.57
2023-05-05T07:55:58.687Z,10.65
2023-05-05T07:58:25.151Z,10.10
2023-05-05T08:00:51.599Z,9.52
2023-05-05T08:03:20.347Z,9.52
2023-05-05T08:05:50.583Z,9.27
2023-05-05T08:08:18.272Z,9.73
2023-05-05T08:10:44.655Z,9.63
2023-05-05T08:13:11.265Z,9.13
2023-05-05T08:15:37.670Z,9.60
2023-05-05T08:18:04.542Z,8.85
2023-05-05T08:20:31.256Z,9.52
2023-05-05T08:22:57.779Z,9.00
2023-05-05T08:25:26.807Z,9.43
2023-05-05T08:27:53.534Z,9.07
2023-05-05T08:30:21.409Z,8.82
2023-05-05T08:32:47.990Z,8.02
2023-05-05T08:35:14.886Z,7.85
2023-05-05T08:37:41.289Z,7.80
2023-05-05T08:40:10.994Z,7.25
2023-05-05T08:42:39.052Z,7.75
2023-05-05T08:45:09.179Z,8.52
2023-05-05T08:47:37.132Z,7.20
2023-05-05T08:50:05.629Z,8.17
2023-05-05T08:55:29.081Z,6.72
2023-05-05T08:57:57.829Z,6.90
2023-05-05T09:00:26.877Z,6.75
2023-05-05T09:02:58.512Z,7.80
2023-05-05T09:05:26.255Z,6.60
2023-05-05T09:07:53.362Z,7.87
2023-05-05T09:10:19.805Z,6.53
2023-05-05T09:12:51.886Z,6.70
2023-05-05T09:15:18.269Z,7.82
2023-05-05T09:17:44.826Z,7.57
2023-05-05T09:20:13.002Z,7.47
2023-05-05T09:22:45.423Z,7.53
2023-05-05T09:25:14.433Z,7.22
2023-05-05T09:27:48.942Z,6.28
2023-05-05T09:30:17.576Z,6.40
2023-05-05T09:32:52.159Z,7.25
2023-05-05T09:35:21.781Z,7.10
2023-05-05T09:37:50.401Z,6.82
2023-05-05T09:40:19.163Z,6.38
2023-05-05T09:42:47.618Z,6.25
2023-05-05T09:45:20.075Z,6.93
2023-05-05T09:47:47.806Z,6.82
2023-05-05T09:50:16.383Z,6.13
2023-05-05T09:55:28.296Z,6.50
2023-05-05T09:57:55.067Z,6.53
2023-05-05T10:00:21.929Z,6.60
2023-05-05T10:02:48.665Z,6.55
2023-05-05T10:05:16.833Z,6.78
2023-05-05T10:07:47.987Z,6.32
2023-05-05T10:10:16.798Z,7.80
2023-05-05T10:12:43.909Z,7.53
2023-05-05T10:15:11.960Z,7.43
2023-05-05T10:18:02.434Z,6.45
2023-05-05T10:20:35.456Z,6.45
2023-05-05T10:23:07.619Z,6.65
2023-05-05T10:25:40.847Z,6.50
2023-05-05T10:28:11.782Z,8.02
2023-05-05T10:30:44.589Z,7.22
2023-05-05T10:35:55.095Z,6.57
2023-05-05T10:38:24.792Z,6.65
2023-05-05T10:40:54.999Z,5.80
2023-05-05T10:43:21.699Z,6.05
2023-05-05T10:45:48.492Z,6.15
2023-05-05T10:48:34.509Z,6.38
2023-05-05T10:51:38.423Z,5.88
2023-05-05T10:54:16.932Z,5.65
2023-05-05T10:56:43.645Z,4.57
2023-05-05T10:59:43.819Z,4.38
2023-05-05T11:02:20.092Z,4.28
2023-05-05T11:05:21.905Z,3.88
2023-05-05T11:07:52.181Z,3.75
2023-05-05T11:10:20.520Z,4.00
2023-05-05T11:13:00.422Z,4.28
2023-05-05T11:15:30.619Z,4.15
2023-05-05T11:18:03.162Z,3.63
2023-05-05T11:20:44.483Z,3.30
2023-05-05T11:23:10.783Z,3.50
2023-05-05T11:25:37.519Z,3.88
2023-05-05T11:28:09.771Z,3.80
2023-05-05T11:30:57.510Z,3.20
2023-05-05T11:33:28.591Z,2.75
2023-05-05T11:35:55.618Z,2.78
2023-05-05T11:38:29.691Z,3.53
2023-05-05T11:41:06.915Z,3.10
2023-05-05T11:43:34.694Z,3.28
2023-05-05T11:46:14.435Z,3.03
2023-05-05T11:48:46.233Z,3.17
2023-05-05T11:51:16.192Z,3.42
2023-05-05T11:53:47.493Z,3.15
2023-05-05T11:56:19.538Z,3.05
2023-05-05T11:58:46.896Z,3.00
2023-05-05T12:01:13.862Z,3.30
2023-05-05T12:03:41.063Z,3.70
2023-05-05T12:06:10.485Z,2.97
2023-05-05T12:08:38.105Z,3.30
2023-05-05T12:11:09.000Z,3.70
2023-05-05T12:13:35.719Z,3.67
2023-05-05T12:16:09.437Z,3.42
2023-05-05T12:18:38.361Z,3.10
2023-05-05T12:21:21.212Z,3.17
2023-05-05T12:23:47.818Z,3.10
2023-05-05T12:26:46.539Z,2.90
2023-05-05T12:29:15.409Z,3.13
2023-05-05T12:31:42.284Z,3.00
2023-05-05T12:34:10.507Z,2.80
2023-05-05T12:36:38.920Z,3.85
2023-05-05T12:41:34.157Z,2.97
2023-05-05T12:44:03.185Z,3.38
2023-05-05T12:46:31.904Z,3.08
2023-05-05T12:49:05.488Z,3.80
2023-05-05T12:51:33.975Z,3.10
2023-05-05T12:56:40.730Z,3.00
2023-05-05T12:59:11.403Z,3.10
2023-05-05T13:01:50.947Z,3.10
2023-05-05T13:04:21.955Z,3.20
2023-05-05T13:06:54.536Z,3.30
2023-05-05T13:09:26.353Z,2.88
2023-05-05T13:11:54.492Z,3.08
2023-05-05T13:14:21.366Z,4.50
2023-05-05T13:16:48.019Z,5.50
2023-05-05T13:19:14.734Z,5.15
2023-05-05T13:21:41.698Z,6.22
2023-05-05T13:24:23.446Z,6.00
2023-05-05T13:26:55.719Z,5.88
2023-05-05T13:29:23.607Z,5.68
2023-05-05T13:31:52.940Z,6.15
2023-05-05T13:34:19.280Z,6.05
2023-05-05T13:36:46.006Z,6.10
2023-05-05T13:39:15.055Z,5.30
2023-05-05T13:41:44.561Z,5.57
2023-05-05T13:44:13.949Z,5.35
2023-05-05T13:46:44.774Z,5.30
2023-05-05T13:49:11.516Z,5.93
2023-05-05T13:51:38.914Z,6.70
2023-05-05T13:54:06.474Z,6.53
2023-05-05T13:56:33.985Z,6.82
2023-05-05T13:59:01.070Z,6.70
2023-05-05T14:01:27.791Z,7.53
2023-05-05T14:03:56.921Z,6.90
2023-05-05T14:06:23.768Z,7.25
2023-05-05T14:08:50.361Z,7.57
2023-05-05T14:11:18.153Z,6.95
2023-05-05T14:13:46.428Z,6.60
2023-05-05T14:16:13.606Z,5.75
2023-05-05T14:18:40.285Z,5.13
2023-05-05T14:21:06.935Z,5.18
2023-05-05T14:23:33.662Z,5.05
2023-05-05T14:26:02.939Z,4.07
2023-05-05T14:28:29.587Z,3.90
2023-05-05T14:30:56.225Z,3.60
2023-05-05T14:33:22.732Z,4.43
2023-05-05T14:35:49.359Z,4.43
2023-05-05T14:38:15.887Z,5.07
2023-05-05T14:40:42.297Z,3.88
2023-05-05T14:43:11.906Z,3.80
2023-05-05T14:45:38.371Z,3.88
2023-05-05T14:48:05.088Z,3.67
2023-05-05T14:50:31.441Z,3.80
2023-05-05T14:52:57.985Z,3.63
2023-05-05T14:55:25.013Z,3.33
2023-05-05T14:57:52.899Z,3.63
2023-05-05T15:00:19.464Z,4.07
2023-05-05T15:02:47.963Z,3.95
2023-05-05T15:05:17.774Z,4.13
2023-05-05T15:07:44.487Z,4.15
2023-05-05T15:10:11.309Z,4.30
2023-05-05T15:12:37.778Z,4.65
2023-05-05T15:15:04.687Z,5.07
2023-05-05T15:17:31.906Z,3.97
2023-05-05T15:19:58.361Z,3.95
2023-05-05T15:22:25.012Z,3.65
2023-05-05T15:24:53.697Z,4.22
2023-05-05T15:27:20.846Z,3.97
2023-05-05T15:29:48.793Z,3.75
2023-05-05T15:32:17.678Z,3.50
2023-05-05T15:34:46.518Z,3.67
2023-05-05T15:37:14.220Z,3.67
2023-05-05T15:39:40.565Z,3.85
2023-05-05T15:42:07.465Z,3.97
2023-05-05T15:44:34.085Z,3.72
2023-05-05T15:47:00.695Z,3.88
2023-05-05T15:49:27.159Z,4.47
2023-05-05T15:51:53.786Z,4.72
2023-05-05T15:54:20.510Z,4.97
2023-05-05T15:56:47.036Z,4.40
2023-05-05T15:59:13.678Z,3.78
2023-05-05T16:01:40.380Z,3.83
2023-05-05T16:04:08.319Z,3.72
2023-05-05T16:06:34.755Z,2.60
2023-05-05T16:09:01.463Z,1.90
2023-05-05T16:11:31.690Z,1.67
2023-05-05T16:13:58.338Z,1.75
2023-05-05T16:16:24.850Z,2.08
2023-05-05T16:18:52.094Z,2.75
2023-05-05T16:21:18.733Z,1.95
2023-05-05T16:23:45.210Z,1.77
2023-05-05T16:26:11.788Z,1.90
2023-05-05T16:28:38.747Z,2.13
2023-05-05T16:31:05.230Z,2.20
2023-05-05T16:33:31.704Z,2.88
2023-05-05T16:35:58.332Z,2.15
2023-05-05T16:38:26.224Z,2.42
2023-05-05T16:40:52.922Z,1.73
2023-05-05T16:43:19.643Z,1.88
2023-05-05T16:45:46.772Z,2.35
2023-05-05T16:48:14.835Z,2.10
2023-05-05T16:50:41.571Z,2.58
2023-05-05T16:53:10.110Z,2.50
2023-05-05T16:58:04.210Z,2.83
2023-05-05T17:00:30.574Z,2.78
2023-05-05T17:02:56.995Z,2.40
2023-05-05T17:05:23.987Z,2.28
2023-05-05T17:07:50.512Z,2.40
2023-05-05T17:10:16.857Z,2.20
2023-05-05T17:12:43.234Z,2.80
2023-05-05T17:15:10.174Z,2.33
2023-05-05T17:17:37.201Z,2.42
2023-05-05T17:20:05.240Z,1.92
2023-05-05T17:22:34.431Z,2.17
2023-05-05T17:25:01.122Z,2.40
2023-05-05T17:27:27.492Z,2.47
2023-05-05T17:29:54.538Z,3.20
2023-05-05T17:32:25.665Z,2.35
2023-05-05T17:34:52.186Z,2.40
2023-05-05T17:37:18.504Z,2.58
2023-05-05T17:39:44.961Z,2.42
2023-05-05T17:42:11.334Z,2.08
2023-05-05T17:44:38.013Z,2.30
2023-05-05T17:47:07.532Z,1.90
2023-05-05T17:49:35.013Z,2.30
2023-05-05T17:52:01.489Z,2.10
2023-05-05T17:54:28.094Z,3.40
2023-05-05T17:56:54.926Z,2.38
2023-05-05T17:59:21.305Z,2.10
2023-05-05T18:01:47.853Z,2.20
2023-05-05T18:04:16.165Z,1.95
2023-05-05T18:06:43.012Z,1.85
2023-05-05T18:09:10.981Z,2.10
2023-05-05T18:11:37.739Z,2.60
2023-05-05T18:14:04.114Z,2.70
2023-05-05T18:16:31.183Z,2.67
2023-05-05T18:18:57.744Z,2.40
2023-05-05T18:21:24.118Z,2.05
2023-05-05T18:23:50.954Z,2.00
2023-05-05T18:26:17.345Z,2.03
2023-05-05T18:28:43.798Z,2.10
2023-05-05T18:31:10.264Z,2.10
2023-05-05T18:33:36.848Z,2.08
2023-05-05T18:36:03.796Z,2.03
2023-05-05T18:38:31.594Z,2.60
2023-05-05T18:40:58.110Z,2.63
2023-05-05T18:43:24.423Z,2.30
2023-05-05T18:45:51.041Z,2.33
2023-05-05T18:48:17.706Z,2.35
2023-05-05T18:50:44.277Z,2.00
2023-05-05T18:53:13.527Z,2.70
2023-05-05T18:55:39.945Z,2.50
2023-05-05T18:58:06.385Z,3.25
2023-05-05T19:00:32.798Z,3.13
2023-05-05T19:02:59.377Z,3.92
2023-05-05T19:05:27.168Z,5.05
2023-05-05T19:07:53.568Z,5.37
2023-05-05T19:10:20.067Z,5.05
2023-05-05T19:12:46.612Z,4.70
2023-05-05T19:15:13.403Z,4.18
2023-05-05T19:17:39.808Z,4.25
2023-05-05T19:20:06.763Z,4.28
2023-05-05T19:22:33.151Z,4.38
2023-05-05T19:24:59.822Z,3.85
2023-05-05T19:27:26.584Z,3.08
2023-05-05T19:29:53.161Z,3.38
2023-05-05T19:32:21.345Z,3.60
2023-05-05T19:34:48.190Z,3.60
2023-05-05T19:37:14.618Z,3.47
2023-05-05T19:39:43.082Z,3.47
2023-05-05T19:42:09.799Z,3.35
2023-05-05T19:44:36.141Z,4.15
2023-05-05T19:47:03.250Z,4.57
2023-05-05T19:49:30.358Z,4.30
2023-05-05T19:52:00.498Z,5.32
2023-05-05T19:54:33.085Z,4.90
2023-05-05T19:57:00.876Z,4.82
2023-05-05T19:59:27.405Z,4.90
2023-05-05T20:01:56.301Z,4.80
2023-05-05T20:04:23.006Z,4.38
2023-05-05T20:06:49.577Z,5.72
2023-05-05T20:09:15.962Z,5.93
2023-05-05T20:11:42.588Z,7.20
2023-05-05T20:14:09.191Z,7.10
2023-05-05T20:16:36.000Z,6.60
2023-05-05T20:19:03.524Z,6.40
2023-05-05T20:21:29.975Z,6.20
2023-05-05T20:23:56.503Z,7.38
2023-05-05T20:26:24.598Z,6.07
2023-05-05T20:28:51.200Z,6.93
2023-05-05T20:31:17.632Z,7.50
2023-05-05T20:33:44.727Z,8.63
2023-05-05T20:36:11.545Z,8.48
2023-05-05T20:38:38.114Z,8.32
2023-05-05T20:41:04.552Z,10.63
2023-05-05T20:43:31.149Z,12.00
2023-05-05T20:45:57.501Z,12.90
2023-05-05T20:48:23.874Z,12.98
2023-05-05T20:50:51.099Z,12.85
2023-05-05T20:53:19.089Z,12.45
2023-05-05T20:55:45.495Z,12.35
2023-05-05T20:58:12.133Z,12.55
2023-05-05T21:00:38.575Z,12.75
2023-05-05T21:03:05.299Z,12.55
2023-05-05T21:05:31.944Z,12.30
2023-05-05T21:08:00.650Z,12.45
2023-05-05T21:10:28.845Z,12.65
2023-05-05T21:12:58.507Z,12.77
2023-05-05T21:15:24.977Z,12.88
2023-05-05T21:17:51.722Z,13.02
2023-05-05T21:20:18.594Z,11.57
2023-05-05T21:22:45.853Z,12.13
2023-05-05T21:25:20.831Z,13.23
2023-05-05T21:27:48.429Z,13.35
2023-05-05T21:30:15.815Z,13.33
2023-05-05T21:32:42.616Z,12.83
2023-05-05T21:35:09.526Z,12.95
2023-05-05T21:37:39.846Z,13.43
2023-05-05T21:40:10.576Z,12.20
2023-05-05T21:42:37.476Z,9.85
2023-05-05T21:45:04.151Z,9.32
2023-05-05T21:47:30.811Z,10.85
2023-05-05T21:49:58.178Z,11.13
2023-05-05T21:52:24.916Z,12.23
2023-05-05T21:54:51.289Z,12.68
2023-05-05T21:57:17.705Z,12.18
2023-05-05T21:59:44.099Z,12.02
2023-05-05T22:02:10.430Z,11.68
2023-05-05T22:04:36.853Z,11.50
2023-05-05T22:07:03.240Z,12.07
2023-05-05T22:09:29.682Z,11.88
2023-05-05T22:11:57.589Z,12.07
2023-05-05T22:14:24.266Z,11.15
2023-05-05T22:16:51.071Z,10.93
2023-05-05T22:19:17.944Z,10.95
2023-05-05T22:21:44.307Z,11.23
2023-05-05T22:24:11.020Z,12.10
2023-05-05T22:26:39.720Z,13.05
2023-05-05T22:29:06.246Z,13.15
2023-05-05T22:31:32.704Z,12.70
2023-05-05T22:33:59.043Z,13.68
2023-05-05T22:36:25.814Z,15.10
2023-05-05T22:38:52.276Z,16.55
2023-05-05T22:41:18.860Z,16.00
2023-05-05T22:43:45.551Z,15.20
2023-05-05T22:46:12.152Z,16.70
2023-05-05T22:48:38.612Z,15.95
2023-05-05T22:51:05.364Z,16.27
2023-05-05T22:53:31.948Z,15.77
2023-05-05T22:55:58.627Z,14.95
2023-05-05T22:58:25.649Z,16.30
2023-05-05T23:00:52.118Z,15.32
2023-05-05T23:03:18.773Z,14.68
2023-05-05T23:05:45.082Z,14.15
2023-05-05T23:08:11.636Z,13.93
2023-05-05T23:10:38.026Z,15.70
2023-05-05T23:13:04.524Z,15.02
2023-05-05T23:15:31.087Z,15.23
2023-05-05T23:17:57.564Z,17.30
2023-05-05T23:20:24.133Z,16.10
2023-05-05T23:22:50.738Z,16.60
2023-05-05T23:25:17.224Z,16.60
2023-05-05T23:27:43.864Z,20.17
2023-05-05T23:30:10.893Z,18.20
2023-05-05T23:32:37.559Z,18.85
2023-05-05T23:35:05.843Z,17.45
2023-05-05T23:37:32.230Z,18.17
2023-05-05T23:39:58.596Z,16.15
2023-05-05T23:42:25.237Z,17.33
2023-05-05T23:44:51.638Z,16.27
2023-05-05T23:47:18.061Z,17.33
2023-05-05T23:49:44.369Z,16.88
2023-05-05T23:52:11.282Z,20.95
2023-05-05T23:54:37.688Z,22.42
2023-05-05T23:57:04.129Z,29.95
2023-05-05T23:59:30.576Z,29.58
